Main page
METAR-TAF:

METAR-TAF

Airports :

Kaunas Airport

Kaunas, Lithuania

latitude: 54-54N, longitude: 023-55-12E, elevation: 77 m

Current weather observation

The report was made 32 minutes ago, at 05:50 UTC
Wind 2 kt from variable directions
Temperature -22°C
Humidity 70%
Pressure 1020 hPa
Visibility: 9000 m

METAR: EYKA 170550Z VRB02KT 9000 NSC M22/M26 Q1020 R08/410095

Time: 08:22 (06:22 UTC)

Forecast

The report was made 1 hour and 18 minutes ago, at 05:04 UTC
Forecast valid from 17 at 06 UTC to 18 at 06 UTC
Wind 4 kt from variable directions
Visibility: 7000 m
Scattered clouds at a height of 1500 ft
Temporary
from 17 at 06 UTC to 17 at 10 UTC
Scattered clouds at a height of 500 ft
Becoming
from 17 at 14 UTC to 17 at 15 UTC
Broken clouds at a height of 1000 ft
Temporary
from 18 at 00 UTC to 18 at 06 UTC
Visibility: 3000 m
Broken clouds at a height of 500 ft
mist

TAF: EYKA 170504Z 1706/1806 VRB04KT 7000 SCT015 TEMPO 1706/1710 SCT005 BECMG 1714/1715 BKN010 TEMPO 1800/1806 3000 BR BKN005

Weather observations and forecasts of more than 4000 airports (METAR and TAF reports).

The available stations are represented by yellow and red dots on the map.

Hover mouse over dot to see the name of the station.

Then click to see weather observations and forecasts.

To change the map : click on the green buttons with a black cross to zoom in, on the green button with a dash to zoom out, or on the green arrows for adjacent maps.


METAR-TAF: